createdAt,value
2023-06-25T00:01:26.239Z,38.25
2023-06-25T00:04:13.177Z,38.42
2023-06-25T00:07:00.043Z,38.78
2023-06-25T00:09:56.832Z,38.49
2023-06-25T00:12:43.780Z,38.60
2023-06-25T00:15:30.745Z,38.52
2023-06-25T00:18:17.614Z,38.79
2023-06-25T00:21:06.230Z,38.55
2023-06-25T00:23:53.091Z,38.78
2023-06-25T00:26:46.753Z,38.73
2023-06-25T00:29:34.194Z,38.96
2023-06-25T00:32:21.428Z,38.85
2023-06-25T00:35:11.996Z,38.88
2023-06-25T00:38:01.987Z,38.84
2023-06-25T00:40:51.489Z,39.15
2023-06-25T00:43:42.410Z,38.85
2023-06-25T00:46:31.561Z,39.01
2023-06-25T00:49:18.489Z,39.19
2023-06-25T00:52:10.179Z,39.02
2023-06-25T00:54:57.070Z,39.19
2023-06-25T00:57:43.989Z,39.13
2023-06-25T01:00:32.269Z,39.39
2023-06-25T01:03:27.789Z,39.01
2023-06-25T01:06:21.779Z,39.22
2023-06-25T01:09:11.689Z,39.32
2023-06-25T01:12:05.768Z,39.41
2023-06-25T01:14:52.944Z,39.69
2023-06-25T01:17:42.663Z,39.42
2023-06-25T01:20:29.689Z,39.31
2023-06-25T01:23:16.649Z,39.48
2023-06-25T01:26:03.834Z,39.55
2023-06-25T01:28:50.742Z,39.41
2023-06-25T01:31:37.590Z,39.56
2023-06-25T01:34:24.752Z,39.52
2023-06-25T01:37:12.905Z,39.66
2023-06-25T01:39:59.780Z,39.73
2023-06-25T01:42:46.717Z,39.60
2023-06-25T01:45:33.862Z,39.53
2023-06-25T01:48:20.978Z,39.79
2023-06-25T01:51:07.851Z,39.85
2023-06-25T01:53:54.775Z,39.97
2023-06-25T01:56:42.098Z,39.82
2023-06-25T01:59:29.230Z,39.88
2023-06-25T02:02:16.100Z,39.91
2023-06-25T02:05:03.932Z,39.78
2023-06-25T02:07:50.808Z,39.88
2023-06-25T02:10:37.645Z,39.96
2023-06-25T02:13:24.462Z,39.93
2023-06-25T02:16:11.351Z,40.06
2023-06-25T02:18:58.301Z,40.05
2023-06-25T02:21:45.208Z,40.03
2023-06-25T02:24:32.073Z,40.16
2023-06-25T02:27:19.002Z,40.07
2023-06-25T02:30:06.464Z,40.03
2023-06-25T02:32:53.365Z,40.10
2023-06-25T02:35:40.879Z,40.05
2023-06-25T02:38:27.734Z,40.19
2023-06-25T02:41:14.649Z,40.18
2023-06-25T02:44:01.543Z,40.17
2023-06-25T02:46:48.464Z,40.17
2023-06-25T02:49:35.395Z,40.34
2023-06-25T02:52:22.261Z,40.35
2023-06-25T02:55:09.574Z,40.40
2023-06-25T02:57:57.313Z,40.28
2023-06-25T03:00:44.183Z,40.33
2023-06-25T03:03:31.114Z,40.38
2023-06-25T03:06:17.975Z,40.38
2023-06-25T03:09:04.865Z,40.43
2023-06-25T03:11:51.704Z,40.44
2023-06-25T03:14:38.767Z,40.69
2023-06-25T03:17:25.744Z,40.66
2023-06-25T03:20:13.186Z,40.55
2023-06-25T03:25:46.938Z,40.60
2023-06-25T03:28:33.832Z,40.69
2023-06-25T03:31:21.295Z,40.74
2023-06-25T03:34:08.211Z,40.61
2023-06-25T03:36:55.061Z,40.60
2023-06-25T03:39:41.989Z,40.92
2023-06-25T03:42:28.830Z,40.78
2023-06-25T03:45:17.145Z,40.86
2023-06-25T03:48:04.431Z,40.80
2023-06-25T03:50:51.529Z,40.82
2023-06-25T03:53:41.782Z,40.96
2023-06-25T03:56:28.675Z,40.92
2023-06-25T03:59:15.555Z,40.95
2023-06-25T04:02:02.514Z,41.00
2023-06-25T04:04:49.439Z,40.90
2023-06-25T04:07:36.340Z,40.66
2023-06-25T04:10:23.285Z,40.92
2023-06-25T04:13:10.475Z,40.94
2023-06-25T04:15:57.336Z,40.89
2023-06-25T04:18:45.367Z,41.05
2023-06-25T04:21:32.492Z,40.89
2023-06-25T04:24:19.369Z,41.04
2023-06-25T04:27:07.003Z,40.95
2023-06-25T04:29:53.887Z,41.07
2023-06-25T04:32:40.765Z,41.16
2023-06-25T04:35:29.432Z,40.79
2023-06-25T04:38:17.675Z,41.18
2023-06-25T04:41:04.499Z,41.18
2023-06-25T04:43:51.331Z,41.18
2023-06-25T04:46:38.257Z,41.09
2023-06-25T04:49:25.205Z,41.29
2023-06-25T04:52:19.454Z,41.29
2023-06-25T04:55:07.132Z,41.32
2023-06-25T04:57:54.017Z,41.31
2023-06-25T05:00:41.990Z,41.46
2023-06-25T05:03:28.873Z,41.47
2023-06-25T05:06:16.795Z,41.43
2023-06-25T05:09:04.036Z,41.54
2023-06-25T05:11:51.057Z,41.66
2023-06-25T05:14:37.921Z,41.33
2023-06-25T05:17:24.804Z,41.49
2023-06-25T05:20:12.057Z,41.41
2023-06-25T05:22:58.922Z,41.43
2023-06-25T05:25:45.851Z,41.68
2023-06-25T05:28:34.538Z,41.51
2023-06-25T05:31:22.074Z,41.23
2023-06-25T05:34:08.963Z,41.41
2023-06-25T05:36:55.863Z,41.40
2023-06-25T05:39:42.724Z,41.42
2023-06-25T05:42:30.231Z,41.23
2023-06-25T05:45:17.080Z,41.48
2023-06-25T05:48:04.101Z,41.46
2023-06-25T05:50:50.984Z,41.39
2023-06-25T05:53:42.527Z,41.57
2023-06-25T05:56:29.397Z,41.41
2023-06-25T05:59:16.249Z,41.48
2023-06-25T06:02:03.586Z,41.66
2023-06-25T06:04:50.487Z,41.55
2023-06-25T06:07:37.447Z,41.38
2023-06-25T06:10:24.434Z,41.68
2023-06-25T06:13:11.395Z,41.58
2023-06-25T06:15:58.287Z,41.49
2023-06-25T06:18:45.228Z,41.62
2023-06-25T06:21:32.123Z,41.57
2023-06-25T06:24:18.988Z,41.53
2023-06-25T06:27:06.655Z,41.42
2023-06-25T06:29:53.517Z,41.40
2023-06-25T06:32:40.488Z,41.45
2023-06-25T06:35:27.358Z,41.53
2023-06-25T06:38:14.401Z,41.50
2023-06-25T06:41:01.252Z,41.52
2023-06-25T06:43:48.111Z,41.28
2023-06-25T06:46:36.050Z,41.41
2023-06-25T06:49:22.913Z,41.39
2023-06-25T06:52:09.853Z,41.32
2023-06-25T06:54:56.783Z,41.35
2023-06-25T06:57:43.722Z,41.27
2023-06-25T07:00:31.358Z,41.19
2023-06-25T07:03:18.268Z,41.19
2023-06-25T07:06:05.101Z,40.90
2023-06-25T07:08:52.037Z,41.27
2023-06-25T07:11:38.867Z,41.35
2023-06-25T07:14:25.722Z,41.19
2023-06-25T07:17:12.569Z,41.17
2023-06-25T07:19:59.459Z,41.21
2023-06-25T07:22:47.413Z,41.30
2023-06-25T07:25:34.594Z,41.23
2023-06-25T07:28:21.813Z,41.23
2023-06-25T07:31:09.240Z,41.05
2023-06-25T07:33:57.410Z,41.28
2023-06-25T07:36:44.280Z,41.01
2023-06-25T07:39:31.333Z,41.07
2023-06-25T07:42:18.936Z,41.05
2023-06-25T07:45:07.317Z,40.91
2023-06-25T07:47:54.522Z,40.91
2023-06-25T07:50:41.977Z,41.00
2023-06-25T07:53:28.799Z,40.91
2023-06-25T07:56:15.644Z,40.90
2023-06-25T07:59:02.827Z,40.94
2023-06-25T08:01:49.718Z,40.91
2023-06-25T08:04:37.245Z,40.88
2023-06-25T08:07:24.635Z,41.07
2023-06-25T08:10:11.554Z,40.84
2023-06-25T08:12:58.395Z,41.17
2023-06-25T08:15:45.221Z,41.00
2023-06-25T08:18:32.132Z,41.08
2023-06-25T08:21:19.005Z,41.20
2023-06-25T08:24:06.136Z,41.05
2023-06-25T08:26:53.008Z,41.04
2023-06-25T08:29:41.446Z,41.16
2023-06-25T08:32:28.638Z,41.10
2023-06-25T08:35:16.329Z,40.97
2023-06-25T08:38:03.435Z,41.04
2023-06-25T08:40:53.414Z,40.96
2023-06-25T08:43:41.059Z,41.26
2023-06-25T08:46:28.141Z,41.12
2023-06-25T08:49:16.216Z,41.16
2023-06-25T08:52:03.170Z,41.20
2023-06-25T08:54:50.988Z,41.04
2023-06-25T08:57:38.004Z,40.98
2023-06-25T09:00:24.911Z,41.38
2023-06-25T09:03:15.636Z,41.11
2023-06-25T09:06:02.768Z,41.03
2023-06-25T09:08:50.512Z,40.21
2023-06-25T09:11:41.768Z,39.98
2023-06-25T09:14:30.964Z,39.61
2023-06-25T09:17:24.205Z,38.94
2023-06-25T09:20:11.588Z,38.17
2023-06-25T09:22:58.650Z,37.93
2023-06-25T09:25:45.742Z,37.89
2023-06-25T09:28:32.744Z,37.55
2023-06-25T09:31:23.684Z,37.61
2023-06-25T09:34:11.595Z,37.39
2023-06-25T09:36:59.255Z,36.83
2023-06-25T09:39:48.650Z,36.17
2023-06-25T09:42:36.057Z,35.71
2023-06-25T09:45:27.314Z,35.28
2023-06-25T09:48:15.479Z,35.16
2023-06-25T09:51:04.815Z,34.70
2023-06-25T09:54:09.443Z,34.73
2023-06-25T09:57:03.121Z,34.86
2023-06-25T09:59:51.057Z,34.80
2023-06-25T10:02:38.444Z,34.69
2023-06-25T10:05:25.815Z,34.62
2023-06-25T10:08:13.772Z,34.49
2023-06-25T10:11:02.081Z,34.53
2023-06-25T10:13:50.079Z,34.50
2023-06-25T10:16:42.702Z,34.17
2023-06-25T10:19:29.648Z,34.37
2023-06-25T10:22:17.630Z,34.27
2023-06-25T10:25:04.815Z,34.19
2023-06-25T10:28:05.683Z,34.09
2023-06-25T10:30:52.588Z,34.05
2023-06-25T10:33:39.682Z,33.94
2023-06-25T10:36:26.788Z,34.05
2023-06-25T10:39:14.064Z,33.55
2023-06-25T10:42:04.507Z,33.44
2023-06-25T10:44:51.367Z,33.19
2023-06-25T10:47:38.516Z,33.15
2023-06-25T10:50:25.468Z,33.22
2023-06-25T10:53:14.410Z,32.84
2023-06-25T10:56:01.717Z,32.51
2023-06-25T10:58:57.954Z,32.52
2023-06-25T11:01:44.952Z,32.85
2023-06-25T11:04:32.045Z,32.92
2023-06-25T11:07:23.478Z,32.55
2023-06-25T11:10:13.792Z,32.34
2023-06-25T11:13:03.839Z,32.10
2023-06-25T11:15:51.367Z,32.01
2023-06-25T11:18:38.366Z,32.08
2023-06-25T11:21:25.816Z,32.18
2023-06-25T11:24:15.199Z,32.17
2023-06-25T11:27:02.176Z,32.11
2023-06-25T11:29:56.103Z,32.06
2023-06-25T11:32:43.082Z,31.76
2023-06-25T11:35:31.219Z,31.35
2023-06-25T11:38:27.515Z,30.86
2023-06-25T11:41:14.502Z,30.93
2023-06-25T11:44:01.376Z,30.67
2023-06-25T11:46:52.172Z,31.26
2023-06-25T11:49:39.199Z,31.04
2023-06-25T11:52:26.630Z,31.29
2023-06-25T11:55:13.600Z,31.07
2023-06-25T11:58:00.506Z,31.36
2023-06-25T12:00:47.388Z,31.04
2023-06-25T12:03:35.127Z,31.18
2023-06-25T12:06:23.778Z,30.97
2023-06-25T12:09:11.058Z,30.91
2023-06-25T12:11:58.039Z,30.87
2023-06-25T12:14:46.366Z,30.65
2023-06-25T12:17:33.535Z,30.65
2023-06-25T12:20:20.430Z,30.67
2023-06-25T12:23:07.405Z,29.97
2023-06-25T12:25:54.319Z,30.02
2023-06-25T12:28:41.244Z,30.08
2023-06-25T12:31:28.258Z,29.82
2023-06-25T12:34:15.139Z,29.89
2023-06-25T12:37:02.016Z,29.72
2023-06-25T12:39:49.484Z,29.83
2023-06-25T12:42:36.402Z,29.64
2023-06-25T12:45:23.736Z,29.60
2023-06-25T12:48:10.618Z,29.85
2023-06-25T12:50:57.697Z,29.63
2023-06-25T12:53:44.595Z,29.65
2023-06-25T12:56:33.820Z,29.61
2023-06-25T12:59:20.736Z,29.54
2023-06-25T13:02:07.801Z,29.55
2023-06-25T13:04:55.104Z,29.87
2023-06-25T13:07:41.954Z,29.83
2023-06-25T13:10:28.819Z,29.74
2023-06-25T13:13:15.852Z,29.71
2023-06-25T13:16:03.225Z,30.00
2023-06-25T13:18:50.400Z,29.78
2023-06-25T13:21:39.705Z,29.93
2023-06-25T13:24:29.650Z,29.90
2023-06-25T13:27:16.869Z,29.67
2023-06-25T13:30:04.410Z,29.51
2023-06-25T13:32:51.329Z,29.24
2023-06-25T13:35:38.450Z,29.08
2023-06-25T13:38:25.518Z,29.25
2023-06-25T13:41:12.385Z,28.93
2023-06-25T13:43:59.304Z,28.78
2023-06-25T13:46:46.430Z,28.57
2023-06-25T13:49:33.365Z,28.42
2023-06-25T13:52:20.253Z,28.65
2023-06-25T13:55:09.426Z,28.83
2023-06-25T13:57:56.281Z,28.82
2023-06-25T14:00:43.167Z,28.62
2023-06-25T14:03:30.038Z,28.55
2023-06-25T14:06:16.917Z,28.72
2023-06-25T14:09:04.551Z,28.65
2023-06-25T14:11:51.444Z,28.67
2023-06-25T14:14:38.290Z,29.14
2023-06-25T14:17:25.214Z,28.80
2023-06-25T14:20:12.107Z,28.65
2023-06-25T14:23:00.028Z,28.38
2023-06-25T14:25:46.917Z,28.51
2023-06-25T14:28:34.218Z,28.56
2023-06-25T14:31:21.561Z,28.64
2023-06-25T14:34:08.680Z,28.58
2023-06-25T14:36:55.597Z,28.64
2023-06-25T14:39:42.542Z,28.79
2023-06-25T14:42:29.390Z,28.85
2023-06-25T14:45:16.327Z,28.71
2023-06-25T14:48:03.294Z,28.72
2023-06-25T14:50:50.389Z,28.71
2023-06-25T14:53:38.180Z,28.75
2023-06-25T14:56:25.363Z,28.83
2023-06-25T14:59:12.266Z,28.67
2023-06-25T15:01:59.261Z,28.71
2023-06-25T15:04:49.225Z,28.58
2023-06-25T15:07:36.469Z,28.36
2023-06-25T15:10:23.570Z,28.31
2023-06-25T15:13:12.508Z,28.35
2023-06-25T15:15:59.509Z,28.39
2023-06-25T15:18:46.363Z,28.28
2023-06-25T15:21:33.550Z,28.25
2023-06-25T15:24:20.510Z,28.57
2023-06-25T15:27:07.776Z,28.37
2023-06-25T15:29:54.674Z,28.41
2023-06-25T15:32:46.255Z,28.73
2023-06-25T15:35:33.563Z,28.59
2023-06-25T15:38:20.662Z,28.58
2023-06-25T15:41:07.604Z,28.58
2023-06-25T15:43:54.619Z,28.40
2023-06-25T15:46:41.573Z,28.34
2023-06-25T15:49:28.432Z,28.30
2023-06-25T15:52:15.375Z,28.09
2023-06-25T15:55:02.298Z,28.17
2023-06-25T15:57:49.370Z,28.38
2023-06-25T16:00:40.854Z,28.06
2023-06-25T16:03:28.129Z,28.03
2023-06-25T16:06:15.092Z,28.07
2023-06-25T16:09:03.332Z,28.14
2023-06-25T16:11:52.525Z,27.89
2023-06-25T16:14:39.452Z,27.76
2023-06-25T16:17:26.483Z,27.62
2023-06-25T16:20:13.547Z,27.75
2023-06-25T16:23:00.518Z,27.88
2023-06-25T16:25:47.619Z,27.93
2023-06-25T16:28:39.146Z,27.79
2023-06-25T16:31:26.621Z,27.95
2023-06-25T16:34:13.865Z,28.00
2023-06-25T16:37:00.695Z,27.93
2023-06-25T16:39:47.666Z,27.69
2023-06-25T16:42:34.768Z,27.73
2023-06-25T16:45:22.126Z,27.66
2023-06-25T16:48:09.072Z,27.82
2023-06-25T16:50:55.960Z,28.00
2023-06-25T16:53:42.832Z,28.25
2023-06-25T16:56:30.917Z,28.37
2023-06-25T16:59:19.599Z,28.20
2023-06-25T17:02:06.888Z,28.20
2023-06-25T17:04:53.771Z,28.69
2023-06-25T17:07:40.717Z,28.79
2023-06-25T17:10:28.506Z,28.79
2023-06-25T17:13:15.394Z,28.92
2023-06-25T17:16:02.478Z,29.00
2023-06-25T17:18:49.967Z,28.62
2023-06-25T17:21:36.817Z,28.78
2023-06-25T17:24:23.780Z,29.02
2023-06-25T17:27:10.884Z,29.03
2023-06-25T17:29:57.859Z,29.00
2023-06-25T17:32:44.875Z,29.05
2023-06-25T17:35:31.849Z,29.03
2023-06-25T17:38:18.742Z,28.87
2023-06-25T17:41:05.611Z,28.85
2023-06-25T17:43:52.484Z,28.78
2023-06-25T17:46:39.465Z,28.85
2023-06-25T17:49:26.403Z,28.94
2023-06-25T17:52:13.227Z,28.79
2023-06-25T17:55:02.068Z,28.90
2023-06-25T17:57:49.194Z,28.95
2023-06-25T18:00:36.045Z,28.79
2023-06-25T18:03:25.675Z,28.74
2023-06-25T18:06:12.612Z,28.71
2023-06-25T18:08:59.431Z,28.66
2023-06-25T18:11:46.345Z,28.73
2023-06-25T18:14:33.449Z,28.77
2023-06-25T18:17:20.305Z,28.86
2023-06-25T18:20:08.051Z,28.81
2023-06-25T18:22:55.198Z,28.89
2023-06-25T18:25:42.625Z,29.26
2023-06-25T18:28:29.815Z,28.94
2023-06-25T18:31:17.180Z,29.09
2023-06-25T18:34:04.129Z,29.16
2023-06-25T18:36:51.040Z,29.21
2023-06-25T18:39:37.880Z,29.16
2023-06-25T18:42:25.689Z,29.27
2023-06-25T18:45:13.428Z,29.24
2023-06-25T18:48:00.398Z,29.38
2023-06-25T18:50:47.551Z,29.31
2023-06-25T18:53:34.437Z,29.47
2023-06-25T18:56:21.293Z,29.48
2023-06-25T18:59:08.621Z,29.45
2023-06-25T19:01:59.463Z,29.64
2023-06-25T19:04:46.501Z,29.71
2023-06-25T19:07:36.837Z,29.72
2023-06-25T19:10:23.669Z,29.73
2023-06-25T19:13:10.980Z,29.81
2023-06-25T19:15:57.925Z,30.10
2023-06-25T19:18:46.758Z,30.38
2023-06-25T19:21:33.755Z,30.11
2023-06-25T19:24:20.592Z,30.00
2023-06-25T19:27:08.836Z,30.22
2023-06-25T19:29:55.832Z,30.22
2023-06-25T19:32:42.777Z,30.25
2023-06-25T19:35:29.644Z,30.32
2023-06-25T19:38:16.538Z,30.40
2023-06-25T19:41:03.390Z,30.15
2023-06-25T19:43:51.654Z,30.50
2023-06-25T19:46:38.813Z,30.73
2023-06-25T19:49:25.657Z,30.17
2023-06-25T19:52:13.704Z,30.62
2023-06-25T19:55:00.503Z,30.82
2023-06-25T19:57:47.524Z,30.58
2023-06-25T20:00:34.454Z,30.91
2023-06-25T20:03:21.414Z,30.84
2023-06-25T20:06:09.316Z,31.05
2023-06-25T20:08:56.364Z,31.04
2023-06-25T20:11:44.832Z,30.99
2023-06-25T20:14:31.816Z,31.07
2023-06-25T20:17:19.063Z,31.18
2023-06-25T20:20:06.601Z,31.24
2023-06-25T20:22:53.496Z,31.30
2023-06-25T20:25:40.819Z,31.31
2023-06-25T20:28:27.696Z,31.29
2023-06-25T20:31:14.668Z,31.35
2023-06-25T20:34:01.548Z,31.44
2023-06-25T20:36:48.396Z,31.64
2023-06-25T20:39:35.358Z,31.73
2023-06-25T20:42:22.236Z,31.56
2023-06-25T20:45:09.395Z,31.60
2023-06-25T20:47:56.362Z,31.62
2023-06-25T20:50:43.250Z,31.94
2023-06-25T20:53:30.128Z,32.07
2023-06-25T20:56:17.158Z,32.33
2023-06-25T20:59:07.792Z,32.21
2023-06-25T21:01:54.750Z,32.42
2023-06-25T21:04:41.676Z,32.52
2023-06-25T21:07:28.620Z,32.73
2023-06-25T21:10:15.615Z,33.00
2023-06-25T21:13:02.496Z,33.19
2023-06-25T21:15:49.325Z,33.26
2023-06-25T21:18:36.581Z,33.19
2023-06-25T21:21:23.422Z,33.36
2023-06-25T21:24:11.302Z,33.08
2023-06-25T21:26:58.156Z,33.45
2023-06-25T21:29:45.129Z,33.35
2023-06-25T21:32:32.138Z,33.77
2023-06-25T21:35:19.021Z,33.83
2023-06-25T21:38:07.640Z,33.84
2023-06-25T21:40:54.669Z,33.80
2023-06-25T21:43:41.637Z,34.06
2023-06-25T21:46:28.577Z,34.26
2023-06-25T21:49:16.627Z,33.92
2023-06-25T21:52:10.727Z,34.54
2023-06-25T21:54:57.705Z,34.15
2023-06-25T21:57:44.653Z,34.33
2023-06-25T22:00:32.735Z,34.70
2023-06-25T22:03:19.753Z,34.85
2023-06-25T22:06:06.762Z,34.50
2023-06-25T22:08:53.633Z,34.53
2023-06-25T22:11:43.669Z,34.98
2023-06-25T22:14:31.841Z,35.00
2023-06-25T22:17:25.326Z,34.96
2023-06-25T22:20:12.345Z,34.97
2023-06-25T22:22:59.249Z,34.81
2023-06-25T22:25:46.158Z,35.25
2023-06-25T22:28:33.151Z,35.33
2023-06-25T22:31:20.013Z,35.39
2023-06-25T22:34:06.970Z,35.14
2023-06-25T22:36:53.803Z,35.10
2023-06-25T22:39:40.716Z,35.54
2023-06-25T22:42:27.615Z,35.27
2023-06-25T22:45:14.504Z,35.28
2023-06-25T22:48:01.398Z,35.42
2023-06-25T22:50:48.814Z,35.19
2023-06-25T22:53:35.764Z,35.36
2023-06-25T22:56:22.624Z,35.42
2023-06-25T22:59:09.515Z,35.70
2023-06-25T23:01:56.526Z,35.51
2023-06-25T23:04:44.161Z,35.77
2023-06-25T23:07:31.210Z,35.83
2023-06-25T23:10:18.611Z,35.77
2023-06-25T23:13:05.597Z,35.42
2023-06-25T23:15:52.489Z,35.56
2023-06-25T23:18:39.385Z,35.82
2023-06-25T23:21:26.795Z,35.79
2023-06-25T23:24:14.539Z,35.71
2023-06-25T23:27:01.380Z,35.67
2023-06-25T23:29:48.233Z,36.00
2023-06-25T23:32:35.340Z,35.79
2023-06-25T23:35:22.260Z,35.82
2023-06-25T23:38:09.093Z,36.10
2023-06-25T23:40:55.961Z,36.18
2023-06-25T23:43:42.859Z,35.99
2023-06-25T23:46:29.726Z,36.25
2023-06-25T23:49:16.844Z,36.19
2023-06-25T23:52:04.275Z,36.14
2023-06-25T23:54:51.132Z,35.97
2023-06-25T23:57:38.269Z,36.25
